TDCF/DCF METAR and TAF weather

Enter ICAO airport designator
Station Type Date Time Source
TDCF METAR 2022/01/26 20:00 UTC NOAA

TDCF 262000Z 30002KT 9999 FEW019 28/18 Q1012


Station Type Date Time Source
TDCF Decoded METAR 2022/01/26 20:00 UTC NOAA

Canefield Airport, Dominica (TDCF) 15-32N 061-24W 5M
Jan 26, 2022 - 03:00 PM EST / 2022.01.26 2000 UTC
Wind: from the WNW (300 degrees) at 2 MPH (2 KT):0
Visibility: greater than 7 mile(s):0
Sky conditions: mostly clear
Temperature: 82 F (28 C)
Dew Point: 64 F (18 C)
Relative Humidity: 54%
Pressure (altimeter): 29.88 in. Hg (1012 hPa)
ob: TDCF 262000Z 30002KT 9999 FEW019 28/18 Q1012
cycle: 20

Station Type Date Time Source
TDCF TAF 2012/05/01 18:15 UTC NOAA

TAF TDCF 011600Z 0118/0218 110010KT 9999 SCT018 BKN030
TEMPO 0118/0206 6000 SHRA BKN014 BKN070

Example: see airport list